createdAt,value
2019-05-22T00:00:16.620Z,98723.55
2019-05-22T00:02:46.009Z,98727.45
2019-05-22T00:05:17.863Z,98731.59
2019-05-22T00:07:47.827Z,98731.70
2019-05-22T00:10:19.589Z,98730.83
2019-05-22T00:12:49.428Z,98733.02
2019-05-22T00:15:18.680Z,98731.30
2019-05-22T00:17:48.985Z,98738.98
2019-05-22T00:20:19.218Z,98739.52
2019-05-22T00:22:48.401Z,98734.21
2019-05-22T00:25:18.742Z,98736.87
2019-05-22T00:27:49.985Z,98746.62
2019-05-22T00:30:20.341Z,98732.59
2019-05-22T00:32:48.747Z,98736.84
2019-05-22T00:35:19.010Z,98737.09
2019-05-22T00:37:47.655Z,98742.47
2019-05-22T00:40:17.988Z,98743.19
2019-05-22T00:43:03.362Z,98748.10
2019-05-22T00:45:22.581Z,98756.17
2019-05-22T00:47:54.491Z,98750.47
2019-05-22T00:50:33.316Z,98756.63
2019-05-22T00:53:05.069Z,98760.69
2019-05-22T00:55:44.069Z,98753.30
2019-05-22T00:58:26.504Z,98763.23
2019-05-22T01:00:57.467Z,98761.29
2019-05-22T01:03:30.088Z,98761.53
2019-05-22T01:05:58.612Z,98750.14
2019-05-22T01:08:28.591Z,98755.84
2019-05-22T01:10:59.134Z,98758.42
2019-05-22T01:13:34.332Z,98760.39
2019-05-22T01:16:04.925Z,98753.50
2019-05-22T01:18:35.893Z,98753.53
2019-05-22T01:21:06.499Z,98755.25
2019-05-22T01:23:36.750Z,98759.00
2019-05-22T01:26:05.505Z,98757.28
2019-05-22T01:28:35.666Z,98765.56
2019-05-22T01:31:08.787Z,98754.85
2019-05-22T01:33:39.690Z,98759.05
2019-05-22T01:36:16.011Z,98767.88
2019-05-22T01:38:45.491Z,98769.20
2019-05-22T01:41:21.215Z,98769.77
2019-05-22T01:43:51.340Z,98786.31
2019-05-22T01:46:22.019Z,98794.81
2019-05-22T01:48:53.781Z,98785.53
2019-05-22T01:51:22.433Z,98786.86
2019-05-22T01:53:51.846Z,98794.10
2019-05-22T01:56:21.008Z,98787.54
2019-05-22T01:58:49.864Z,98788.97
2019-05-22T02:01:20.766Z,98787.31
2019-05-22T02:03:50.865Z,98787.25
2019-05-22T02:06:21.952Z,98795.52
2019-05-22T02:08:59.306Z,98796.77
2019-05-22T02:11:28.669Z,98794.05
2019-05-22T02:14:06.412Z,98787.48
2019-05-22T02:16:36.671Z,98781.39
2019-05-22T02:19:05.153Z,98785.88
2019-05-22T02:21:34.884Z,98787.95
2019-05-22T02:24:05.059Z,98784.91
2019-05-22T02:26:34.286Z,98791.86
2019-05-22T02:29:03.067Z,98797.63
2019-05-22T02:31:33.426Z,98792.80
2019-05-22T02:34:03.759Z,98805.41
2019-05-22T02:36:34.207Z,98803.40
2019-05-22T02:39:04.230Z,98798.03
2019-05-22T02:41:36.166Z,98809.73
2019-05-22T02:44:05.201Z,98806.22
2019-05-22T02:46:33.691Z,98816.90
2019-05-22T02:49:02.275Z,98816.44
2019-05-22T02:51:30.879Z,98808.55
2019-05-22T02:54:00.330Z,98810.27
2019-05-22T02:56:29.194Z,98814.25
2019-05-22T02:58:57.783Z,98810.44
2019-05-22T03:01:27.128Z,98814.42
2019-05-22T03:03:55.827Z,98818.17
2019-05-22T03:06:24.316Z,98822.21
2019-05-22T03:08:59.613Z,98817.77
2019-05-22T03:11:34.850Z,98818.53
2019-05-22T03:14:03.931Z,98823.37
2019-05-22T03:16:51.096Z,98811.91
2019-05-22T03:19:26.268Z,98816.84
2019-05-22T03:21:55.352Z,98812.86
2019-05-22T03:24:24.759Z,98815.98
2019-05-22T03:26:54.177Z,98817.84
2019-05-22T03:29:28.492Z,98827.05
2019-05-22T03:31:57.088Z,98825.79
2019-05-22T03:34:25.830Z,98821.52
2019-05-22T03:36:54.243Z,98833.45
2019-05-22T03:39:22.741Z,98824.56
2019-05-22T03:41:52.000Z,98838.35
2019-05-22T03:44:22.589Z,98833.35
2019-05-22T03:46:52.319Z,98840.08
2019-05-22T03:49:30.365Z,98836.41
2019-05-22T03:51:55.775Z,98850.28
2019-05-22T03:54:25.961Z,98851.08
2019-05-22T03:56:54.384Z,98844.59
2019-05-22T03:59:23.386Z,98849.59
2019-05-22T04:01:52.170Z,98855.81
2019-05-22T04:04:39.865Z,98863.70
2019-05-22T04:07:12.263Z,98863.61
2019-05-22T04:09:43.114Z,98859.73
2019-05-22T04:12:13.544Z,98869.63
2019-05-22T04:14:42.220Z,98862.61
2019-05-22T04:17:12.980Z,98863.00
2019-05-22T04:19:49.179Z,98864.33
2019-05-22T04:22:14.290Z,98878.74
2019-05-22T04:24:43.289Z,98873.27
2019-05-22T04:27:12.352Z,98879.14
2019-05-22T04:29:42.117Z,98881.23
2019-05-22T04:32:13.745Z,98887.39
2019-05-22T04:34:42.612Z,98881.39
2019-05-22T04:37:13.615Z,98907.16
2019-05-22T04:39:43.741Z,98886.95
2019-05-22T04:42:13.768Z,98890.55
2019-05-22T04:45:02.372Z,98891.02
2019-05-22T04:47:30.871Z,98889.30
2019-05-22T04:50:07.591Z,98885.48
2019-05-22T04:52:29.810Z,98891.55
2019-05-22T04:54:59.114Z,98887.27
2019-05-22T04:57:27.613Z,98904.09
2019-05-22T04:59:56.472Z,98898.00
2019-05-22T05:02:24.886Z,98896.20
2019-05-22T05:04:53.394Z,98910.02
2019-05-22T05:07:22.762Z,98912.66
2019-05-22T05:09:51.359Z,98918.48
2019-05-22T05:12:19.867Z,98915.94
2019-05-22T05:14:48.450Z,98918.41
2019-05-22T05:17:17.639Z,98916.74
2019-05-22T05:19:46.510Z,98919.63
2019-05-22T05:22:17.975Z,98920.89
2019-05-22T05:24:46.414Z,98924.47
2019-05-22T05:27:15.101Z,98919.89
2019-05-22T05:29:43.529Z,98925.48
2019-05-22T05:32:12.206Z,98929.31
2019-05-22T05:34:49.101Z,98932.88
2019-05-22T05:37:19.590Z,98937.35
2019-05-22T05:39:51.073Z,98944.90
2019-05-22T05:42:19.583Z,98941.69
2019-05-22T05:44:48.004Z,98951.52
2019-05-22T05:47:17.894Z,98945.20
2019-05-22T05:49:47.365Z,98954.48
2019-05-22T05:52:17.606Z,98955.92
2019-05-22T05:54:47.797Z,98954.44
2019-05-22T05:57:34.465Z,98959.18
2019-05-22T06:00:05.151Z,98965.69
2019-05-22T06:02:33.564Z,98965.34
2019-05-22T06:05:02.070Z,98960.29
2019-05-22T06:07:30.482Z,98962.72
2019-05-22T06:10:18.333Z,98962.72
2019-05-22T06:12:48.282Z,98970.61
2019-05-22T06:15:16.789Z,98968.73
2019-05-22T06:17:51.876Z,98969.66
2019-05-22T06:20:22.023Z,98971.91
2019-05-22T06:23:16.468Z,98969.56
2019-05-22T06:25:46.546Z,98972.61
2019-05-22T06:28:15.031Z,98974.64
2019-05-22T06:30:46.288Z,98972.52
2019-05-22T06:33:29.622Z,98977.70
2019-05-22T06:35:59.295Z,98977.89
2019-05-22T06:38:43.034Z,98982.54
2019-05-22T06:41:12.335Z,98982.48
2019-05-22T06:43:43.808Z,98982.05
2019-05-22T06:46:14.602Z,98988.45
2019-05-22T06:48:44.765Z,98993.97
2019-05-22T06:51:19.320Z,98987.83
2019-05-22T06:53:44.015Z,98986.08
2019-05-22T06:56:12.613Z,98994.73
2019-05-22T06:58:41.222Z,98992.33
2019-05-22T07:01:10.012Z,98993.99
2019-05-22T07:03:38.420Z,98998.34
2019-05-22T07:06:06.867Z,98992.89
2019-05-22T07:08:35.372Z,98996.70
2019-05-22T07:11:03.859Z,98999.14
2019-05-22T07:13:32.307Z,98990.56
2019-05-22T07:16:02.676Z,98999.14
2019-05-22T07:18:31.942Z,98997.25
2019-05-22T07:21:01.078Z,98993.38
2019-05-22T07:23:31.962Z,99005.30
2019-05-22T07:26:01.320Z,99009.89
2019-05-22T07:28:30.208Z,99019.48
2019-05-22T07:30:58.759Z,99019.08
2019-05-22T07:33:27.199Z,99027.59
2019-05-22T07:36:09.235Z,99027.47
2019-05-22T07:38:26.824Z,99029.94
2019-05-22T07:40:55.857Z,99034.22
2019-05-22T07:43:24.409Z,99027.87
2019-05-22T07:45:54.064Z,99029.62
2019-05-22T07:48:25.913Z,99025.33
2019-05-22T07:50:56.858Z,99035.11
2019-05-22T07:53:26.621Z,99040.09
2019-05-22T07:55:56.430Z,99034.98
2019-05-22T07:58:25.703Z,99045.91
2019-05-22T08:00:56.407Z,99050.58
2019-05-22T08:03:26.170Z,99042.48
2019-05-22T08:05:56.419Z,99053.44
2019-05-22T08:08:26.464Z,99048.20
2019-05-22T08:10:56.978Z,99051.54
2019-05-22T08:13:26.465Z,99067.97
2019-05-22T08:15:55.020Z,99065.28
2019-05-22T08:18:24.162Z,99061.17
2019-05-22T08:20:52.654Z,99067.22
2019-05-22T08:23:22.426Z,99066.97
2019-05-22T08:25:51.889Z,99072.83
2019-05-22T08:28:21.235Z,99067.45
2019-05-22T08:30:50.290Z,99059.38
2019-05-22T08:33:20.729Z,99068.02
2019-05-22T08:35:49.485Z,99082.22
2019-05-22T08:38:18.535Z,99079.37
2019-05-22T08:40:48.699Z,99080.17
2019-05-22T08:43:17.768Z,99079.96
2019-05-22T08:45:46.218Z,99084.43
2019-05-22T08:48:14.915Z,99083.75
2019-05-22T08:50:45.248Z,99082.09
2019-05-22T08:53:16.096Z,99084.24
2019-05-22T08:55:45.381Z,99090.38
2019-05-22T08:58:16.203Z,99080.11
2019-05-22T09:00:45.294Z,99088.03
2019-05-22T09:03:14.622Z,99088.36
2019-05-22T09:05:43.117Z,99091.66
2019-05-22T09:08:11.533Z,99093.91
2019-05-22T09:10:39.958Z,99097.72
2019-05-22T09:13:09.384Z,99100.89
2019-05-22T09:15:39.544Z,99109.50
2019-05-22T09:18:08.778Z,99108.44
2019-05-22T09:20:48.820Z,99108.30
2019-05-22T09:23:09.720Z,99112.16
2019-05-22T09:25:38.590Z,99114.32
2019-05-22T09:28:07.188Z,99112.53
2019-05-22T09:30:36.472Z,99112.92
2019-05-22T09:33:05.660Z,99113.84
2019-05-22T09:35:34.636Z,99111.59
2019-05-22T09:38:03.152Z,99114.70
2019-05-22T09:40:32.522Z,99130.01
2019-05-22T09:43:02.059Z,99126.65
2019-05-22T09:45:30.935Z,99134.28
2019-05-22T09:47:59.950Z,99131.69
2019-05-22T09:50:29.148Z,99142.55
2019-05-22T09:52:58.457Z,99138.73
2019-05-22T09:55:27.166Z,99140.73
2019-05-22T09:57:55.750Z,99141.41
2019-05-22T10:00:25.096Z,99136.60
2019-05-22T10:02:53.828Z,99145.39
2019-05-22T10:05:22.554Z,99153.41
2019-05-22T10:08:00.335Z,99148.04
2019-05-22T10:10:21.896Z,99148.81
2019-05-22T10:12:50.839Z,99144.83
2019-05-22T10:15:20.587Z,99160.59
2019-05-22T10:17:50.047Z,99157.02
2019-05-22T10:20:20.199Z,99164.23
2019-05-22T10:22:49.307Z,99160.31
2019-05-22T10:25:18.607Z,99163.53
2019-05-22T10:27:48.025Z,99169.94
2019-05-22T10:30:20.830Z,99173.41
2019-05-22T10:32:50.188Z,99172.47
2019-05-22T10:35:22.398Z,99180.19
2019-05-22T10:37:51.153Z,99184.59
2019-05-22T10:40:20.626Z,99178.87
2019-05-22T10:42:49.445Z,99172.41
2019-05-22T10:45:17.932Z,99181.57
2019-05-22T10:47:47.549Z,99178.73
2019-05-22T10:50:16.537Z,99187.91
2019-05-22T10:52:45.052Z,99196.02
2019-05-22T10:55:14.469Z,99189.71
2019-05-22T10:57:44.557Z,99189.55
2019-05-22T11:00:15.954Z,99189.30
2019-05-22T11:02:45.058Z,99191.55
2019-05-22T11:05:14.141Z,99193.84
2019-05-22T11:07:43.403Z,99205.05
2019-05-22T11:10:13.862Z,99201.63
2019-05-22T11:12:42.242Z,99195.76
2019-05-22T11:15:13.057Z,99198.91
2019-05-22T11:17:41.569Z,99204.37
2019-05-22T11:20:12.194Z,99214.41
2019-05-22T11:22:40.980Z,99206.52
2019-05-22T11:25:11.102Z,99205.08
2019-05-22T11:27:40.655Z,99204.73
2019-05-22T11:30:13.827Z,99207.21
2019-05-22T11:32:42.435Z,99211.84
2019-05-22T11:35:12.536Z,99224.57
2019-05-22T11:37:41.034Z,99211.88
2019-05-22T11:40:11.583Z,99221.73
2019-05-22T11:42:40.227Z,99221.11
2019-05-22T11:45:11.629Z,99217.90
2019-05-22T11:47:40.997Z,99220.44
2019-05-22T11:50:11.888Z,99214.28
2019-05-22T11:52:41.858Z,99223.40
2019-05-22T11:55:12.991Z,99223.16
2019-05-22T11:57:43.533Z,99222.23
2019-05-22T12:00:14.992Z,99222.12
2019-05-22T12:02:45.221Z,99225.91
2019-05-22T12:05:14.085Z,99235.54
2019-05-22T12:07:43.440Z,99228.52
2019-05-22T12:10:14.237Z,99231.42
2019-05-22T12:12:44.528Z,99230.95
2019-05-22T12:15:13.921Z,99227.28
2019-05-22T12:17:42.888Z,99230.75
2019-05-22T12:20:13.245Z,99236.00
2019-05-22T12:22:42.523Z,99234.26
2019-05-22T12:25:13.601Z,99227.38
2019-05-22T12:27:42.485Z,99241.88
2019-05-22T12:30:13.085Z,99246.66
2019-05-22T12:32:42.029Z,99241.51
2019-05-22T12:35:13.863Z,99249.31
2019-05-22T12:37:42.999Z,99244.16
2019-05-22T12:40:15.512Z,99248.05
2019-05-22T12:42:45.297Z,99251.10
2019-05-22T12:45:16.206Z,99259.25
2019-05-22T12:47:44.637Z,99251.70
2019-05-22T12:50:16.874Z,99262.92
2019-05-22T12:52:50.664Z,99260.06
2019-05-22T12:55:20.777Z,99264.39
2019-05-22T12:57:50.735Z,99272.91
2019-05-22T13:00:23.894Z,99264.97
2019-05-22T13:02:53.959Z,99272.45
2019-05-22T13:05:23.375Z,99265.02
2019-05-22T13:07:52.082Z,99269.55
2019-05-22T13:10:22.268Z,99264.84
2019-05-22T13:12:50.841Z,99262.70
2019-05-22T13:15:19.770Z,99268.12
2019-05-22T13:17:48.978Z,99260.20
2019-05-22T13:20:40.470Z,99253.04
2019-05-22T13:22:53.880Z,99253.56
2019-05-22T13:25:26.147Z,99257.33
2019-05-22T13:27:55.003Z,99258.93
2019-05-22T13:30:28.464Z,99247.80
2019-05-22T13:32:57.124Z,99246.47
2019-05-22T13:35:26.774Z,99247.95
2019-05-22T13:37:57.093Z,99249.19
2019-05-22T13:40:28.113Z,99241.94
2019-05-22T13:42:57.899Z,99252.00
2019-05-22T13:45:29.714Z,99258.11
2019-05-22T13:48:01.798Z,99258.57
2019-05-22T13:50:30.743Z,99257.16
2019-05-22T13:53:02.818Z,99263.91
2019-05-22T13:55:33.347Z,99262.34
2019-05-22T13:58:02.092Z,99263.73
2019-05-22T14:00:30.831Z,99259.13
2019-05-22T14:02:59.798Z,99263.27
2019-05-22T14:05:29.462Z,99268.11
2019-05-22T14:07:58.137Z,99264.34
2019-05-22T14:10:28.875Z,99272.17
2019-05-22T14:12:58.216Z,99270.09
2019-05-22T14:15:26.980Z,99267.73
2019-05-22T14:17:55.414Z,99265.27
2019-05-22T14:20:26.057Z,99262.01
2019-05-22T14:22:54.648Z,99262.89
2019-05-22T14:25:25.071Z,99259.19
2019-05-22T14:27:53.638Z,99260.60
2019-05-22T14:30:24.853Z,99266.97
2019-05-22T14:32:53.337Z,99259.66
2019-05-22T14:35:23.608Z,99267.39
2019-05-22T14:37:52.160Z,99266.28
2019-05-22T14:40:21.107Z,99263.75
2019-05-22T14:42:49.609Z,99261.63
2019-05-22T14:45:18.782Z,99265.23
2019-05-22T14:47:47.360Z,99264.50
2019-05-22T14:50:15.944Z,99261.25
2019-05-22T14:52:44.464Z,99266.79
2019-05-22T14:55:13.988Z,99260.04
2019-05-22T14:57:42.726Z,99261.72
2019-05-22T15:00:13.450Z,99272.39
2019-05-22T15:02:42.060Z,99265.76
2019-05-22T15:05:11.223Z,99265.22
2019-05-22T15:07:40.026Z,99258.64
2019-05-22T15:10:09.602Z,99253.83
2019-05-22T15:12:38.108Z,99258.02
2019-05-22T15:15:08.257Z,99253.64
2019-05-22T15:17:37.298Z,99258.97
2019-05-22T15:20:08.340Z,99258.12
2019-05-22T15:22:37.524Z,99261.10
2019-05-22T15:25:07.563Z,99262.94
2019-05-22T15:27:37.016Z,99270.48
2019-05-22T15:30:06.985Z,99264.58
2019-05-22T15:32:35.476Z,99266.63
2019-05-22T15:35:04.960Z,99268.95
2019-05-22T15:37:34.659Z,99274.79
2019-05-22T15:40:05.714Z,99271.36
2019-05-22T15:42:42.857Z,99268.12
2019-05-22T15:45:23.249Z,99264.13
2019-05-22T15:47:56.292Z,99262.09
2019-05-22T15:50:33.284Z,99268.95
2019-05-22T15:53:07.730Z,99270.76
2019-05-22T15:55:36.521Z,99279.06
2019-05-22T15:58:08.765Z,99272.20
2019-05-22T16:00:38.856Z,99274.86
2019-05-22T16:03:10.216Z,99272.19
2019-05-22T16:05:40.340Z,99278.57
2019-05-22T16:08:09.922Z,99278.09
2019-05-22T16:10:41.030Z,99275.53
2019-05-22T16:13:12.629Z,99265.72
2019-05-22T16:15:43.663Z,99269.42
2019-05-22T16:18:13.780Z,99264.66
2019-05-22T16:20:43.739Z,99279.63
2019-05-22T16:23:13.155Z,99273.63
2019-05-22T16:25:42.795Z,99275.91
2019-05-22T16:28:14.495Z,99279.44
2019-05-22T16:30:43.773Z,99277.68
2019-05-22T16:33:13.888Z,99278.06
2019-05-22T16:35:42.392Z,99280.20
2019-05-22T16:38:11.435Z,99273.55
2019-05-22T16:40:41.268Z,99280.70
2019-05-22T16:43:09.812Z,99279.03
2019-05-22T16:45:39.372Z,99286.73
2019-05-22T16:48:09.288Z,99279.81
2019-05-22T16:50:39.038Z,99279.73
2019-05-22T16:53:13.154Z,99275.54
2019-05-22T16:55:42.511Z,99268.30
2019-05-22T16:58:13.046Z,99281.31
2019-05-22T17:00:44.216Z,99281.39
2019-05-22T17:03:15.276Z,99275.94
2019-05-22T17:05:44.667Z,99278.58
2019-05-22T17:08:13.522Z,99277.66
2019-05-22T17:10:42.411Z,99267.56
2019-05-22T17:13:14.328Z,99277.27
2019-05-22T17:15:43.962Z,99281.34
2019-05-22T17:18:16.276Z,99283.55
2019-05-22T17:20:46.903Z,99283.62
2019-05-22T17:23:15.374Z,99283.15
2019-05-22T17:25:44.338Z,99277.05
2019-05-22T17:28:13.116Z,99268.27
2019-05-22T17:30:42.573Z,99285.40
2019-05-22T17:33:11.824Z,99278.83
2019-05-22T17:35:42.144Z,99282.06
2019-05-22T17:38:11.000Z,99272.08
2019-05-22T17:40:41.327Z,99273.51
2019-05-22T17:43:10.990Z,99262.27
2019-05-22T17:45:42.761Z,99272.30
2019-05-22T17:48:14.587Z,99276.08
2019-05-22T17:50:44.548Z,99279.55
2019-05-22T17:53:13.279Z,99268.52
2019-05-22T17:55:42.350Z,99273.52
2019-05-22T17:58:11.792Z,99277.70
2019-05-22T18:00:42.196Z,99276.59
2019-05-22T18:03:10.950Z,99278.28
2019-05-22T18:05:40.544Z,99276.87
2019-05-22T18:08:10.260Z,99277.53
2019-05-22T18:10:40.940Z,99280.67
2019-05-22T18:13:10.066Z,99281.54
2019-05-22T18:15:38.745Z,99269.94
2019-05-22T18:18:07.779Z,99273.27
2019-05-22T18:20:43.306Z,99266.23
2019-05-22T18:23:06.561Z,99267.22
2019-05-22T18:25:35.347Z,99275.91
2019-05-22T18:28:04.892Z,99272.48
2019-05-22T18:30:35.135Z,99270.14
2019-05-22T18:33:03.623Z,99273.97
2019-05-22T18:35:32.579Z,99271.88
2019-05-22T18:38:04.704Z,99276.44
2019-05-22T18:40:31.255Z,99271.81
2019-05-22T18:42:59.658Z,99277.44
2019-05-22T18:45:28.719Z,99272.58
2019-05-22T18:47:57.368Z,99275.91
2019-05-22T18:50:26.837Z,99278.25
2019-05-22T18:52:55.367Z,99270.03
2019-05-22T18:55:23.778Z,99275.47
2019-05-22T18:57:52.263Z,99272.98
2019-05-22T19:00:23.251Z,99279.84
2019-05-22T19:02:51.948Z,99287.84
2019-05-22T19:05:26.754Z,99280.72
2019-05-22T19:07:55.663Z,99280.08
2019-05-22T19:10:24.386Z,99281.16
2019-05-22T19:12:53.086Z,99292.41
2019-05-22T19:15:22.800Z,99288.22
2019-05-22T19:17:51.225Z,99290.05
2019-05-22T19:20:19.628Z,99291.09
2019-05-22T19:22:59.506Z,99294.80
2019-05-22T19:25:18.351Z,99296.63
2019-05-22T19:27:46.766Z,99298.39
2019-05-22T19:30:18.546Z,99301.39
2019-05-22T19:32:47.428Z,99298.63
2019-05-22T19:35:15.970Z,99301.63
2019-05-22T19:37:46.307Z,99304.48
2019-05-22T19:40:16.371Z,99301.83
2019-05-22T19:42:44.781Z,99303.03
2019-05-22T19:45:14.331Z,99305.23
2019-05-22T19:47:48.728Z,99306.95
2019-05-22T19:50:23.226Z,99313.09
2019-05-22T19:52:48.045Z,99312.50
2019-05-22T19:55:19.183Z,99310.58
2019-05-22T19:57:47.774Z,99318.62
2019-05-22T20:00:16.767Z,99322.52
2019-05-22T20:02:45.944Z,99324.39
2019-05-22T20:05:14.893Z,99326.58
2019-05-22T20:07:43.313Z,99324.80
2019-05-22T20:10:12.456Z,99322.14
2019-05-22T20:12:41.559Z,99329.58
2019-05-22T20:15:11.179Z,99324.97
2019-05-22T20:17:39.595Z,99329.09
2019-05-22T20:20:10.306Z,99331.44
2019-05-22T20:22:39.148Z,99331.89
2019-05-22T20:25:08.859Z,99331.03
2019-05-22T20:27:38.261Z,99336.27
2019-05-22T20:30:08.961Z,99334.33
2019-05-22T20:32:38.118Z,99334.95
2019-05-22T20:35:08.934Z,99336.41
2019-05-22T20:37:37.433Z,99330.95
2019-05-22T20:40:10.011Z,99340.21
2019-05-22T20:42:39.591Z,99340.30
2019-05-22T20:45:09.272Z,99339.39
2019-05-22T20:47:39.410Z,99343.19
2019-05-22T20:50:12.584Z,99336.09
2019-05-22T20:52:41.471Z,99333.03
2019-05-22T20:55:12.189Z,99342.99
2019-05-22T20:57:42.554Z,99337.08
2019-05-22T21:00:15.095Z,99331.05
2019-05-22T21:02:45.531Z,99331.22
2019-05-22T21:05:18.183Z,99330.64
2019-05-22T21:07:49.664Z,99335.34
2019-05-22T21:10:19.615Z,99344.93
2019-05-22T21:12:48.666Z,99338.94
2019-05-22T21:15:18.291Z,99343.41
2019-05-22T21:17:46.987Z,99346.69
2019-05-22T21:20:17.471Z,99345.52
2019-05-22T21:22:46.255Z,99345.64
2019-05-22T21:25:14.792Z,99339.34
2019-05-22T21:27:43.200Z,99339.55
2019-05-22T21:30:13.906Z,99339.66
2019-05-22T21:32:43.736Z,99343.47
2019-05-22T21:35:14.047Z,99346.61
2019-05-22T21:37:42.456Z,99346.68
2019-05-22T21:40:11.997Z,99345.51
2019-05-22T21:42:41.769Z,99347.17
2019-05-22T21:45:11.150Z,99345.55
2019-05-22T21:47:41.233Z,99348.30
2019-05-22T21:50:11.226Z,99347.89
2019-05-22T21:52:40.029Z,99346.00
2019-05-22T21:55:11.225Z,99345.13
2019-05-22T21:57:40.490Z,99343.13
2019-05-22T22:00:16.099Z,99354.53
2019-05-22T22:02:48.741Z,99345.05
2019-05-22T22:05:19.197Z,99354.03
2019-05-22T22:07:48.067Z,99354.59
2019-05-22T22:10:17.127Z,99347.38
2019-05-22T22:12:47.760Z,99350.63
2019-05-22T22:15:16.785Z,99357.68
2019-05-22T22:17:46.819Z,99363.00
2019-05-22T22:20:18.325Z,99369.39
2019-05-22T22:22:49.084Z,99362.20
2019-05-22T22:25:17.560Z,99376.41
2019-05-22T22:27:46.746Z,99370.45
2019-05-22T22:30:27.599Z,99378.02
2019-05-22T22:32:58.256Z,99368.05
2019-05-22T22:35:26.739Z,99375.66
2019-05-22T22:37:56.487Z,99370.87
2019-05-22T22:40:27.276Z,99374.69
2019-05-22T22:42:56.346Z,99372.29
2019-05-22T22:45:35.091Z,99377.36
2019-05-22T22:48:03.761Z,99375.27
2019-05-22T22:50:32.448Z,99376.45
2019-05-22T22:53:02.749Z,99379.16
2019-05-22T22:55:31.445Z,99389.16
2019-05-22T22:58:16.107Z,99380.41
2019-05-22T23:00:35.264Z,99371.97
2019-05-22T23:03:04.275Z,99385.98
2019-05-22T23:05:35.493Z,99378.06
2019-05-22T23:08:04.506Z,99385.66
2019-05-22T23:10:33.398Z,99381.22
2019-05-22T23:13:03.513Z,99384.28
2019-05-22T23:15:32.579Z,99383.13
2019-05-22T23:18:02.165Z,99383.02
2019-05-22T23:20:29.435Z,99389.75
2019-05-22T23:22:57.259Z,99384.95
2019-05-22T23:25:25.952Z,99388.75
2019-05-22T23:27:55.802Z,99387.27
2019-05-22T23:30:24.782Z,99390.30
2019-05-22T23:32:54.448Z,99389.75
2019-05-22T23:35:24.767Z,99385.47
2019-05-22T23:37:53.804Z,99378.50
2019-05-22T23:40:25.870Z,99377.69
2019-05-22T23:42:54.530Z,99389.45
2019-05-22T23:45:24.457Z,99389.13
2019-05-22T23:47:59.038Z,99391.89
2019-05-22T23:50:28.500Z,99383.63
2019-05-22T23:52:58.438Z,99377.29
2019-05-22T23:55:26.947Z,99378.45
2019-05-22T23:57:55.961Z,99373.63
